createdAt,value
2019-03-11T00:02:11.143Z,26.20
2019-03-11T00:04:48.551Z,26.70
2019-03-11T00:07:25.862Z,26.40
2019-03-11T00:10:03.033Z,26.60
2019-03-11T00:15:15.596Z,26.70
2019-03-11T00:17:52.728Z,26.70
2019-03-11T00:20:29.863Z,26.50
2019-03-11T00:23:10.283Z,27.20
2019-03-11T00:25:48.425Z,26.40
2019-03-11T00:28:25.922Z,26.30
2019-03-11T00:36:14.345Z,26.70
2019-03-11T00:38:51.911Z,26.20
2019-03-11T00:44:04.221Z,26.50
2019-03-11T00:46:41.496Z,26.10
2019-03-11T00:49:18.799Z,26.40
2019-03-11T00:51:56.274Z,26.50
2019-03-11T00:54:33.588Z,26.60
2019-03-11T00:57:11.238Z,26.90
2019-03-11T00:59:48.435Z,27.00
2019-03-11T01:02:25.476Z,27.10
2019-03-11T01:05:08.063Z,27.20
2019-03-11T01:07:45.532Z,27.40
2019-03-11T01:10:26.932Z,27.20
2019-03-11T01:13:04.258Z,27.40
2019-03-11T01:15:42.527Z,27.40
2019-03-11T01:18:20.398Z,27.40
2019-03-11T01:23:37.553Z,27.30
2019-03-11T01:26:14.804Z,27.50
2019-03-11T01:31:26.591Z,27.50
2019-03-11T01:34:04.401Z,27.70
2019-03-11T01:36:41.523Z,27.40
2019-03-11T01:39:18.799Z,27.40
2019-03-11T01:41:55.938Z,27.50
2019-03-11T01:44:34.578Z,27.70
2019-03-11T01:47:11.778Z,27.70
2019-03-11T01:49:48.809Z,27.40
2019-03-11T01:52:25.884Z,27.00
2019-03-11T01:55:03.134Z,27.60
2019-03-11T01:57:40.352Z,27.60
2019-03-11T02:00:19.379Z,27.70
2019-03-11T02:02:56.931Z,27.40
2019-03-11T02:05:34.072Z,27.50
2019-03-11T02:08:11.227Z,27.40
2019-03-11T02:10:49.515Z,27.90
2019-03-11T02:13:26.997Z,27.80
2019-03-11T02:16:04.389Z,28.10
2019-03-11T02:18:41.588Z,28.20
2019-03-11T02:21:20.181Z,28.20
2019-03-11T02:23:57.375Z,28.20
2019-03-11T02:26:34.557Z,28.10
2019-03-11T02:29:11.841Z,28.00
2019-03-11T02:31:49.039Z,27.70
2019-03-11T02:34:26.224Z,27.60
2019-03-11T02:37:03.347Z,27.70
2019-03-11T02:39:40.956Z,27.80
2019-03-11T02:42:18.227Z,28.10
2019-03-11T02:44:58.872Z,28.30
2019-03-11T02:47:36.315Z,28.70
2019-03-11T02:50:13.725Z,28.60
2019-03-11T02:52:50.875Z,28.80
2019-03-11T02:55:28.019Z,28.90
2019-03-11T02:58:05.200Z,28.30
2019-03-11T03:00:42.499Z,28.20
2019-03-11T03:06:14.010Z,28.30
2019-03-11T03:08:51.028Z,27.90
2019-03-11T03:11:28.059Z,28.50
2019-03-11T03:14:05.114Z,28.70
2019-03-11T03:16:42.405Z,28.60
2019-03-11T03:19:19.552Z,28.80
2019-03-11T03:21:56.679Z,28.90
2019-03-11T03:24:34.014Z,29.00
2019-03-11T03:27:11.227Z,29.30
2019-03-11T03:29:48.537Z,29.40
2019-03-11T03:32:26.859Z,30.00
2019-03-11T03:35:04.061Z,29.70
2019-03-11T03:37:41.562Z,29.70
2019-03-11T03:40:18.966Z,29.60
2019-03-11T03:42:56.326Z,29.80
2019-03-11T03:45:35.586Z,30.10
2019-03-11T03:48:13.040Z,30.00
2019-03-11T03:50:53.993Z,29.80
2019-03-11T03:53:31.212Z,29.80
2019-03-11T03:56:08.579Z,29.90
2019-03-11T03:58:45.988Z,29.80
2019-03-11T04:01:23.413Z,30.00
2019-03-11T04:04:00.602Z,30.10
2019-03-11T04:06:37.818Z,29.80
2019-03-11T04:11:49.914Z,29.90
2019-03-11T04:14:26.980Z,29.60
2019-03-11T04:17:05.765Z,29.30
2019-03-11T04:19:43.003Z,30.50
2019-03-11T04:22:20.316Z,30.20
2019-03-11T04:30:07.379Z,30.60
2019-03-11T04:37:54.044Z,29.40
2019-03-11T04:43:05.890Z,29.60
2019-03-11T04:45:43.079Z,29.40
2019-03-11T04:48:20.279Z,30.00
2019-03-11T04:50:57.588Z,29.30
2019-03-11T04:53:34.898Z,29.40
2019-03-11T04:56:13.925Z,29.30
2019-03-11T05:01:25.886Z,29.70
2019-03-11T05:04:03.155Z,30.10
2019-03-11T05:06:40.318Z,30.00
2019-03-11T05:09:17.516Z,30.30
2019-03-11T05:11:54.573Z,30.50
2019-03-11T05:14:31.711Z,30.50
2019-03-11T05:17:08.882Z,30.20
2019-03-11T05:22:22.750Z,29.80
2019-03-11T05:25:01.149Z,30.60
2019-03-11T05:27:38.628Z,30.70
2019-03-11T05:32:52.603Z,30.70
2019-03-11T05:38:04.381Z,31.20
2019-03-11T05:40:41.639Z,31.10
2019-03-11T05:45:55.976Z,30.80
2019-03-11T05:53:41.136Z,30.50
2019-03-11T05:58:53.054Z,31.10
2019-03-11T06:01:30.588Z,30.90
2019-03-11T06:04:07.792Z,30.70
2019-03-11T06:09:21.472Z,30.50
2019-03-11T06:11:58.679Z,30.70
2019-03-11T06:14:36.678Z,31.00
2019-03-11T06:19:48.906Z,30.50
2019-03-11T06:22:29.451Z,30.30
2019-03-11T06:25:06.488Z,30.50
2019-03-11T06:27:43.571Z,30.20
2019-03-11T06:30:21.106Z,29.90
2019-03-11T06:32:58.186Z,30.30
2019-03-11T06:35:35.561Z,30.00
2019-03-11T06:48:33.392Z,29.70
2019-03-11T06:51:10.631Z,29.90
2019-03-11T06:59:13.116Z,29.30
2019-03-11T07:01:50.263Z,29.00
2019-03-11T07:04:30.789Z,29.00
2019-03-11T07:07:07.856Z,29.00
2019-03-11T07:09:45.335Z,29.30
2019-03-11T07:12:22.314Z,29.20
2019-03-11T07:14:59.433Z,29.20
2019-03-11T07:17:38.291Z,29.20
2019-03-11T07:20:17.190Z,28.90
2019-03-11T07:22:54.404Z,28.70
2019-03-11T07:25:31.676Z,28.40
2019-03-11T07:28:08.729Z,28.20
2019-03-11T07:30:45.734Z,27.90
2019-03-11T07:33:23.352Z,27.80
2019-03-11T07:36:00.593Z,27.80
2019-03-11T07:38:42.517Z,27.80
2019-03-11T07:41:19.644Z,27.70
2019-03-11T07:43:57.112Z,27.60
2019-03-11T07:46:34.255Z,27.50
2019-03-11T07:49:11.669Z,27.40
2019-03-11T07:51:48.991Z,27.50
2019-03-11T07:54:35.543Z,27.40
2019-03-11T07:57:04.453Z,27.40
2019-03-11T07:59:46.975Z,27.30
2019-03-11T08:07:40.608Z,27.30
2019-03-11T08:10:18.116Z,27.30
2019-03-11T08:12:55.470Z,27.20
2019-03-11T08:15:32.739Z,26.80
2019-03-11T08:18:10.847Z,27.10
2019-03-11T08:23:22.835Z,26.40
2019-03-11T08:26:01.030Z,26.70
2019-03-11T08:28:38.131Z,26.90
2019-03-11T08:31:15.419Z,26.70
2019-03-11T08:36:29.343Z,26.40
2019-03-11T08:39:06.783Z,26.60
2019-03-11T08:44:18.670Z,26.60
2019-03-11T08:46:55.864Z,26.50
2019-03-11T08:49:33.070Z,26.30
2019-03-11T08:52:11.497Z,26.40
2019-03-11T08:54:48.859Z,26.60
2019-03-11T08:57:26.238Z,26.80
2019-03-11T09:00:03.454Z,26.70
2019-03-11T09:02:40.592Z,26.40
2019-03-11T09:05:18.095Z,26.60
2019-03-11T09:07:55.192Z,26.50
2019-03-11T09:10:32.326Z,26.70
2019-03-11T09:13:09.601Z,26.50
2019-03-11T09:15:46.754Z,26.60
2019-03-11T09:18:23.959Z,26.70
2019-03-11T09:21:01.167Z,26.50
2019-03-11T09:23:38.355Z,26.50
2019-03-11T09:26:15.714Z,26.60
2019-03-11T09:28:52.934Z,26.50
2019-03-11T09:31:31.300Z,26.60
2019-03-11T09:34:08.520Z,26.50
2019-03-11T09:36:45.632Z,26.50
2019-03-11T09:39:25.986Z,26.50
2019-03-11T09:42:04.908Z,26.50
2019-03-11T09:44:43.972Z,25.80
2019-03-11T09:47:21.211Z,26.30
2019-03-11T09:49:58.905Z,26.40
2019-03-11T09:52:35.978Z,26.50
2019-03-11T09:55:14.255Z,26.30
2019-03-11T09:57:51.765Z,26.30
2019-03-11T10:00:29.331Z,26.20
2019-03-11T10:03:06.763Z,26.20
2019-03-11T10:05:44.053Z,26.10
2019-03-11T10:08:21.247Z,26.10
2019-03-11T10:10:58.585Z,26.40
2019-03-11T10:13:36.045Z,26.10
2019-03-11T10:16:14.631Z,26.20
2019-03-11T10:18:59.725Z,26.10
2019-03-11T10:21:36.595Z,26.10
2019-03-11T10:24:15.488Z,26.10
2019-03-11T10:26:52.382Z,26.10
2019-03-11T10:29:30.349Z,26.10
2019-03-11T10:32:09.887Z,26.20
2019-03-11T10:34:48.898Z,26.10
2019-03-11T10:37:29.396Z,26.30
2019-03-11T10:40:06.603Z,25.90
2019-03-11T10:42:43.953Z,26.20
2019-03-11T10:45:30.218Z,26.20
2019-03-11T10:47:59.741Z,26.10
2019-03-11T10:50:37.479Z,26.10
2019-03-11T10:53:14.666Z,26.00
2019-03-11T10:55:56.991Z,26.10
2019-03-11T10:58:39.224Z,26.00
2019-03-11T11:01:16.383Z,26.00
2019-03-11T11:03:53.696Z,25.90
2019-03-11T11:06:31.323Z,25.90
2019-03-11T11:09:09.764Z,25.90
2019-03-11T11:11:48.344Z,25.70
2019-03-11T11:14:25.554Z,25.80
2019-03-11T11:17:03.735Z,25.80
2019-03-11T11:19:40.830Z,25.80
2019-03-11T11:22:18.801Z,25.80
2019-03-11T11:27:32.187Z,25.80
2019-03-11T11:30:09.804Z,25.40
2019-03-11T11:32:46.948Z,25.70
2019-03-11T11:35:26.145Z,25.70
2019-03-11T11:38:03.422Z,25.70
2019-03-11T11:40:40.613Z,25.70
2019-03-11T11:43:17.746Z,25.60
2019-03-11T11:48:30.412Z,25.30
2019-03-11T11:51:08.044Z,25.60
2019-03-11T11:53:45.314Z,25.60
2019-03-11T11:56:22.405Z,25.40
2019-03-11T11:58:59.492Z,25.50
2019-03-11T12:01:36.869Z,25.50
2019-03-11T12:04:14.011Z,25.50
2019-03-11T12:06:51.598Z,25.50
2019-03-11T12:09:28.815Z,25.60
2019-03-11T12:12:06.240Z,25.60
2019-03-11T12:14:43.476Z,25.60
2019-03-11T12:17:23.293Z,25.50
2019-03-11T12:19:58.776Z,25.50
2019-03-11T12:22:35.811Z,25.30
2019-03-11T12:25:13.854Z,25.30
2019-03-11T12:27:54.194Z,25.20
2019-03-11T12:30:30.689Z,25.40
2019-03-11T12:33:07.924Z,25.50
2019-03-11T12:35:45.030Z,25.50
2019-03-11T12:38:22.616Z,25.40
2019-03-11T12:41:00.740Z,25.40
2019-03-11T12:43:38.688Z,25.50
2019-03-11T12:46:17.798Z,25.70
2019-03-11T12:48:55.088Z,25.60
2019-03-11T12:51:32.322Z,25.40
2019-03-11T12:54:09.386Z,25.50
2019-03-11T12:56:50.526Z,25.50
2019-03-11T12:59:28.062Z,25.50
2019-03-11T13:02:08.840Z,25.40
2019-03-11T13:04:45.968Z,25.50
2019-03-11T13:07:23.135Z,25.50
2019-03-11T13:10:05.901Z,26.00
2019-03-11T13:12:43.227Z,25.60
2019-03-11T13:15:21.457Z,25.70
2019-03-11T13:17:58.795Z,25.50
2019-03-11T13:20:39.652Z,25.40
2019-03-11T13:23:17.004Z,25.30
2019-03-11T13:25:54.168Z,25.20
2019-03-11T13:31:42.913Z,25.30
2019-03-11T13:34:20.678Z,25.30
2019-03-11T13:36:57.866Z,25.10
2019-03-11T13:39:34.950Z,25.30
2019-03-11T13:42:12.149Z,25.20
2019-03-11T13:44:49.219Z,25.20
2019-03-11T13:47:26.419Z,25.10
2019-03-11T13:50:03.649Z,25.00
2019-03-11T13:52:40.902Z,25.10
2019-03-11T13:55:18.562Z,25.10
2019-03-11T13:57:56.062Z,25.10
2019-03-11T14:00:33.134Z,25.00
2019-03-11T14:03:10.349Z,25.10
2019-03-11T14:05:47.506Z,25.00
2019-03-11T14:08:24.823Z,25.10
2019-03-11T14:11:01.868Z,25.10
2019-03-11T14:13:39.010Z,25.10
2019-03-11T14:16:16.065Z,24.90
2019-03-11T14:18:53.123Z,25.00
2019-03-11T14:21:30.130Z,25.10
2019-03-11T14:24:07.238Z,25.00
2019-03-11T14:29:38.704Z,25.00
2019-03-11T14:32:18.071Z,24.90
2019-03-11T14:34:55.259Z,24.90
2019-03-11T14:37:32.687Z,24.90
2019-03-11T14:40:10.045Z,24.90
2019-03-11T14:42:47.202Z,24.90
2019-03-11T14:45:24.617Z,24.90
2019-03-11T14:48:03.009Z,24.90
2019-03-11T14:50:40.602Z,24.90
2019-03-11T14:53:17.765Z,24.90
2019-03-11T14:55:56.410Z,24.90
2019-03-11T14:58:33.583Z,24.80
2019-03-11T15:01:10.781Z,24.80
2019-03-11T15:03:48.301Z,24.70
2019-03-11T15:06:25.483Z,24.70
2019-03-11T15:09:02.714Z,24.70
2019-03-11T15:11:39.800Z,24.70
2019-03-11T15:14:16.927Z,24.70
2019-03-11T15:16:54.204Z,24.70
2019-03-11T15:19:31.363Z,24.70
2019-03-11T15:22:08.515Z,24.70
2019-03-11T15:24:45.745Z,24.70
2019-03-11T15:27:22.846Z,24.70
2019-03-11T15:29:59.917Z,24.80
2019-03-11T15:32:37.017Z,24.80
2019-03-11T15:35:16.745Z,24.90
2019-03-11T15:40:57.311Z,24.90
2019-03-11T15:43:35.449Z,24.80
2019-03-11T15:46:12.582Z,25.30
2019-03-11T15:48:50.010Z,24.80
2019-03-11T15:51:36.213Z,24.80
2019-03-11T15:54:05.440Z,24.80
2019-03-11T15:56:42.830Z,24.70
2019-03-11T15:59:20.199Z,24.90
2019-03-11T16:01:57.330Z,24.90
2019-03-11T16:04:34.443Z,24.80
2019-03-11T16:07:11.710Z,24.70
2019-03-11T16:09:50.171Z,24.70
2019-03-11T16:12:27.307Z,24.70
2019-03-11T16:15:04.410Z,24.70
2019-03-11T16:17:41.538Z,23.60
2019-03-11T16:20:19.156Z,24.70
2019-03-11T16:22:56.334Z,24.70
2019-03-11T16:25:33.382Z,24.70
2019-03-11T16:28:16.902Z,24.60
2019-03-11T16:31:07.363Z,24.70
2019-03-11T16:33:44.036Z,24.60
2019-03-11T16:36:21.224Z,24.70
2019-03-11T16:38:58.287Z,24.70
2019-03-11T16:41:35.325Z,24.70
2019-03-11T16:44:12.441Z,24.90
2019-03-11T16:46:49.887Z,24.50
2019-03-11T16:49:27.555Z,24.50
2019-03-11T16:52:04.925Z,24.60
2019-03-11T16:54:42.108Z,24.60
2019-03-11T16:57:19.301Z,24.50
2019-03-11T16:59:56.446Z,24.50
2019-03-11T17:02:33.632Z,24.50
2019-03-11T17:05:11.034Z,24.40
2019-03-11T17:07:48.143Z,24.40
2019-03-11T17:10:26.209Z,24.40
2019-03-11T17:13:03.268Z,24.30
2019-03-11T17:15:40.449Z,24.30
2019-03-11T17:18:17.548Z,24.30
2019-03-11T17:20:55.063Z,24.20
2019-03-11T17:23:32.254Z,24.30
2019-03-11T17:26:09.574Z,24.20
2019-03-11T17:28:47.413Z,24.50
2019-03-11T17:31:24.859Z,24.10
2019-03-11T17:34:02.035Z,24.10
2019-03-11T17:36:39.406Z,24.10
2019-03-11T17:39:17.292Z,24.10
2019-03-11T17:41:54.663Z,24.10
2019-03-11T17:44:31.908Z,24.00
2019-03-11T17:47:09.064Z,24.00
2019-03-11T17:49:46.505Z,23.80
2019-03-11T17:52:23.888Z,24.30
2019-03-11T17:55:01.013Z,24.30
2019-03-11T17:57:38.480Z,24.20
2019-03-11T18:06:30.047Z,23.80
2019-03-11T18:09:09.802Z,23.60
2019-03-11T18:11:47.070Z,23.70
2019-03-11T18:14:24.770Z,23.70
2019-03-11T18:17:01.951Z,23.70
2019-03-11T18:19:39.111Z,23.80
2019-03-11T18:22:17.128Z,23.70
2019-03-11T18:24:54.187Z,23.70
2019-03-11T18:27:31.258Z,23.80
2019-03-11T18:30:08.620Z,23.70
2019-03-11T18:32:45.735Z,23.70
2019-03-11T18:35:23.007Z,24.00
2019-03-11T18:38:04.583Z,23.70
2019-03-11T18:40:38.465Z,23.70
2019-03-11T18:43:20.697Z,23.70
2019-03-11T18:45:54.439Z,23.70
2019-03-11T18:48:31.643Z,23.70
2019-03-11T18:51:11.171Z,23.80
2019-03-11T18:53:47.217Z,23.90
2019-03-11T18:56:24.261Z,23.90
2019-03-11T18:59:01.440Z,23.90
2019-03-11T19:01:38.647Z,23.80
2019-03-11T19:04:15.813Z,23.80
2019-03-11T19:06:52.932Z,23.90
2019-03-11T19:09:30.126Z,23.80
2019-03-11T19:12:08.234Z,23.70
2019-03-11T19:14:45.413Z,23.60
2019-03-11T19:17:22.666Z,23.60
2019-03-11T19:20:00.050Z,23.60
2019-03-11T19:22:37.206Z,23.60
2019-03-11T19:25:14.679Z,23.60
2019-03-11T19:27:51.755Z,23.50
2019-03-11T19:30:28.919Z,23.50
2019-03-11T19:33:06.097Z,23.50
2019-03-11T19:35:43.245Z,23.50
2019-03-11T19:38:20.325Z,23.50
2019-03-11T19:40:57.519Z,23.50
2019-03-11T19:43:34.629Z,23.50
2019-03-11T19:46:11.932Z,23.50
2019-03-11T19:48:48.977Z,23.50
2019-03-11T19:51:26.314Z,23.40
2019-03-11T19:54:03.802Z,23.30
2019-03-11T19:56:40.885Z,23.20
2019-03-11T19:59:17.948Z,23.20
2019-03-11T20:01:55.083Z,23.30
2019-03-11T20:04:32.186Z,23.20
2019-03-11T20:07:09.398Z,23.20
2019-03-11T20:09:46.683Z,23.20
2019-03-11T20:12:23.876Z,23.40
2019-03-11T20:15:00.968Z,23.30
2019-03-11T20:17:38.069Z,23.30
2019-03-11T20:20:16.294Z,23.20
2019-03-11T20:22:55.162Z,23.20
2019-03-11T20:25:33.713Z,23.10
2019-03-11T20:28:11.657Z,23.60
2019-03-11T20:30:48.959Z,23.20
2019-03-11T20:33:26.118Z,23.40
2019-03-11T20:36:03.281Z,23.30
2019-03-11T20:38:42.738Z,23.90
2019-03-11T20:41:19.033Z,23.00
2019-03-11T20:43:56.208Z,23.40
2019-03-11T20:46:33.317Z,23.50
2019-03-11T20:56:56.592Z,23.50
2019-03-11T20:59:33.782Z,23.20
2019-03-11T21:04:45.928Z,23.90
2019-03-11T21:07:25.552Z,24.10
2019-03-11T21:10:02.700Z,23.50
2019-03-11T21:12:41.088Z,23.50
2019-03-11T21:15:19.085Z,23.50
2019-03-11T21:17:56.312Z,23.60
2019-03-11T21:25:44.008Z,23.50
2019-03-11T21:28:21.633Z,23.30
2019-03-11T21:30:58.860Z,23.80
2019-03-11T21:33:36.051Z,23.70
2019-03-11T21:38:48.100Z,24.20
2019-03-11T21:41:26.424Z,24.20
2019-03-11T21:44:03.725Z,23.90
2019-03-11T21:46:40.869Z,24.00
2019-03-11T21:51:52.534Z,24.20
2019-03-11T21:57:04.374Z,24.10
2019-03-11T21:59:41.564Z,24.70
2019-03-11T22:02:19.743Z,24.30
2019-03-11T22:07:31.498Z,24.70
2019-03-11T22:12:43.323Z,24.80
2019-03-11T22:15:20.881Z,24.40
2019-03-11T22:17:58.322Z,24.50
2019-03-11T22:20:36.483Z,24.60
2019-03-11T22:23:13.695Z,24.70
2019-03-11T22:25:50.792Z,25.00
2019-03-11T22:28:30.486Z,25.10
2019-03-11T22:31:07.868Z,25.20
2019-03-11T22:33:44.897Z,24.80
2019-03-11T22:36:21.995Z,25.00
2019-03-11T22:38:59.172Z,24.80
2019-03-11T22:46:45.509Z,25.20
2019-03-11T22:59:41.188Z,25.10
2019-03-11T23:02:19.341Z,25.60
2019-03-11T23:04:56.419Z,25.70
2019-03-11T23:07:33.565Z,26.10
2019-03-11T23:12:47.017Z,26.00
2019-03-11T23:15:24.194Z,25.80
2019-03-11T23:18:01.363Z,26.20
2019-03-11T23:23:13.210Z,26.20
2019-03-11T23:25:50.370Z,26.30
2019-03-11T23:31:02.076Z,26.40
2019-03-11T23:33:39.238Z,26.50
2019-03-11T23:36:16.425Z,26.60
2019-03-11T23:38:53.561Z,26.70
2019-03-11T23:41:30.754Z,26.70
2019-03-11T23:44:07.958Z,26.80
2019-03-11T23:46:45.131Z,27.00
2019-03-11T23:49:22.244Z,27.10
2019-03-11T23:51:59.323Z,27.30
2019-03-11T23:54:36.439Z,27.10
2019-03-11T23:57:13.504Z,27.10
2019-03-11T23:59:50.603Z,27.40
